Zaliv Vostok — A8RM6 — position and weather

sailwx.info

Track history (hours):
 
Tides and Currents Weather Stations Pressure Air Temp Water Temp Dewpoint Dewpoint Depression Visibility Wind Speed Wind Dir Waves Ship Positions

Zaliv Vostok

Last reported at 2016-Sep-25 00:33 UTC. Time now 2016-Oct-01 18:56 UTC.
Position N 36°18' E 014°26'.

Length 243 m; draft 14 m.

Type: Tanker. MMSI: 636014127.

Date/timePositionNaut miles runAvg speedWind from/ knotsBaromVisibWave heightAir tempDewpointWater temp
2016-Sep-25 00:33N 36°18' E 014°26'2512.7
2016-Sep-24 22:33N 36°26' E 013°56'54912.5
2016-Sep-23 02:33N 37°10' E 002°33'37213.2
2016-Sep-21 22:16N 36°01' W 005°03'4314.9
2016-Sep-21 19:21N 35°54' W 005°56'19612.2
2016-Sep-21 03:15N 37°05' W 009°44'1113.2
2016-Sep-21 02:24N 37°16' W 009°47'11613.0
2016-Sep-20 17:29N 39°10' W 010°12'  
2016-Sep-18 10:15N 49°37' W 003°54'1012.8
2016-Sep-18 09:27N 49°43' W 003°40'14012.9
2016-Sep-17 22:33N 50°29' W 000°14'1110.6
2016-Sep-17 21:31N 50°32' E 000°02'1010.1
2016-Sep-17 20:33N 50°34' E 000°17'8412.0
2016-Sep-17 13:33N 51°29' E 001°59'1111.2
2016-Sep-17 12:33N 51°37' E 002°11'32711.9
2016-Sep-16 09:07N 56°24' E 006°36'10812.2
2016-Sep-16 00:13N 57°42' E 008°55'2012.0
2016-Sep-15 22:33N 57°51' E 009°29'1312.2
2016-Sep-15 21:31N 57°53' E 009°52'1412.4
2016-Sep-15 20:22N 57°55' E 010°19'1810.1
2016-Sep-15 18:33N 57°44' E 010°46'13 2.2
2016-Sep-15 12:33N 57°35' E 011°04'1312.8
2016-Sep-15 11:33N 57°28' E 011°25'7911.3
2016-Sep-15 04:34N 56°09' E 011°15'1313.1
2016-Sep-15 03:34N 55°58' E 011°02'2411.8
2016-Sep-15 01:34N 55°36' E 010°49'  
Track history (hours):
 
Tides and Currents Weather Stations Pressure Air Temp Water Temp Dewpoint Dewpoint Depression Visibility Wind Speed Wind Dir Waves Ship Positions

Zaliv Vostok

Last reported at 2016-Sep-25 00:33 UTC. Time now 2016-Oct-01 18:56 UTC.
Position N 36°18' E 014°26'.

Length 243 m; draft 14 m.

Type: Tanker. MMSI: 636014127.

Date/timePositionNaut miles runAvg speedWind from/ knotsBaromVisibWave heightAir tempDewpointWater temp
2016-Sep-25 00:33N 36°18' E 014°26'2512.7
2016-Sep-24 22:33N 36°26' E 013°56'54912.5
2016-Sep-23 02:33N 37°10' E 002°33'37213.2
2016-Sep-21 22:16N 36°01' W 005°03'4314.9
2016-Sep-21 19:21N 35°54' W 005°56'19612.2
2016-Sep-21 03:15N 37°05' W 009°44'1113.2
2016-Sep-21 02:24N 37°16' W 009°47'11613.0
2016-Sep-20 17:29N 39°10' W 010°12'  
2016-Sep-18 10:15N 49°37' W 003°54'1012.8
2016-Sep-18 09:27N 49°43' W 003°40'14012.9
2016-Sep-17 22:33N 50°29' W 000°14'1110.6
2016-Sep-17 21:31N 50°32' E 000°02'1010.1
2016-Sep-17 20:33N 50°34' E 000°17'8412.0
2016-Sep-17 13:33N 51°29' E 001°59'1111.2
2016-Sep-17 12:33N 51°37' E 002°11'32711.9
2016-Sep-16 09:07N 56°24' E 006°36'10812.2
2016-Sep-16 00:13N 57°42' E 008°55'2012.0
2016-Sep-15 22:33N 57°51' E 009°29'1312.2
2016-Sep-15 21:31N 57°53' E 009°52'1412.4
2016-Sep-15 20:22N 57°55' E 010°19'1810.1
2016-Sep-15 18:33N 57°44' E 010°46'13 2.2
2016-Sep-15 12:33N 57°35' E 011°04'1312.8
2016-Sep-15 11:33N 57°28' E 011°25'7911.3
2016-Sep-15 04:34N 56°09' E 011°15'1313.1
2016-Sep-15 03:34N 55°58' E 011°02'2411.8
2016-Sep-15 01:34N 55°36' E 010°49'  

Dump ship's entire track history